NCAR-RAP Real-Time Weather Data

Output produced by METARs form (14 October 2019  23:14 UTC)
found at http://weather.rap.ucar.edu/surface/
 
KSGF 142252Z AUTO 16009KT 10SM CLR 21/08 A2995 RMK AO2 SLP140 T02110083
KSGF 142152Z AUTO 15013KT 10SM CLR 23/08 A2996 RMK AO2 SLP142 T02280078